UVA7906 KEWR-SBGR
Flight info
| Callsign | UVA7906 |
|---|---|
| Flight time | N/A |
| Altitude | 37000 |
| Route | ELVAE DCT NECCK DCT DIXIE Y482 SQUAD/M085F370 DCT DARUX L459 DASER DCT GECAL L461 OPAUL/N0492F370 L461 YIYYO/N0490F380 DCT ZPATA/N0491F370 UL329 YOLKK/N0487F390 UL329 KORTO DCT KOXAM UA312 TONOM DCT NIRNA DCT VUMON DCT OPNAX/N0481F410 UZ24 MULUV/N0481F400 UZ38 VUNOX |
| Aircraft | A35K/H-SDE2E3GHIJ3J4J5LM1ORWXY/LB1D1 |
Departure
| Time | 2026-05-01 10:18 |
|---|---|
| Airport | Newark Liberty International Airport (KEWR) |
Arrival
| Time | N/A |
|---|---|
| Airport | São Paulo/Guarulhos–Governor André Franco Montoro International Airport (SBGR) |
| Time | Latitude | Longitude | Altitude | Speed | Heading |
|---|---|---|---|---|---|
| 2026-05-01 09:59 | 40.68614 | -74.18562 | 26 ft | 0 kts | 359° |
| 2026-05-01 10:02 | 40.68612 | -74.18562 | 17 ft | 3 kts | 359° |
| 2026-05-01 10:03 | 40.68593 | -74.18562 | 31 ft | 3 kts | 359° |
| 2026-05-01 10:03 | 40.68575 | -74.18562 | 31 ft | 3 kts | 359° |
| 2026-05-01 10:03 | 40.68555 | -74.18563 | 24 ft | 3 kts | 23° |
| 2026-05-01 10:03 | 40.68539 | -74.18577 | 32 ft | 3 kts | 59° |
| 2026-05-01 10:04 | 40.68535 | -74.18584 | 32 ft | 0 kts | 72° |
| 2026-05-01 10:04 | 40.68536 | -74.18581 | 32 ft | 0 kts | 72° |
| 2026-05-01 10:05 | 40.68539 | -74.18567 | 31 ft | 4 kts | 73° |
| 2026-05-01 10:05 | 40.68541 | -74.18562 | 31 ft | 0 kts | 74° |
| 2026-05-01 10:09 | 40.68540 | -74.18559 | 26 ft | 0 kts | 80° |
| 2026-05-01 10:10 | 40.68539 | -74.18552 | 26 ft | 1 kts | 98° |
| 2026-05-01 10:10 | 40.68533 | -74.18529 | 32 ft | 3 kts | 116° |
| 2026-05-01 10:10 | 40.68477 | -74.18530 | 28 ft | 7 kts | 188° |
| 2026-05-01 10:11 | 40.68442 | -74.18505 | 28 ft | 7 kts | 143° |
| 2026-05-01 10:11 | 40.68408 | -74.18450 | 26 ft | 10 kts | 120° |
| 2026-05-01 10:11 | 40.68375 | -74.18353 | 27 ft | 13 kts | 109° |
| 2026-05-01 10:11 | 40.68355 | -74.18252 | 29 ft | 12 kts | 101° |
| 2026-05-01 10:12 | 40.68346 | -74.18146 | 29 ft | 0 kts | 91° |
| 2026-05-01 10:12 | 40.68346 | -74.18138 | 29 ft | 2 kts | 91° |
| 2026-05-01 10:12 | 40.68337 | -74.18073 | 28 ft | 3 kts | 130° |
| 2026-05-01 10:13 | 40.68317 | -74.18060 | 26 ft | 4 kts | 156° |
| 2026-05-01 10:13 | 40.68284 | -74.18046 | 31 ft | 6 kts | 161° |
| 2026-05-01 10:13 | 40.68246 | -74.18025 | 27 ft | 6 kts | 155° |
| 2026-05-01 10:14 | 40.68141 | -74.17958 | 27 ft | 11 kts | 152° |
| 2026-05-01 10:14 | 40.68059 | -74.17915 | 26 ft | 13 kts | 175° |
| 2026-05-01 10:14 | 40.67974 | -74.17950 | 29 ft | 9 kts | 205° |
| 2026-05-01 10:14 | 40.67951 | -74.17963 | 29 ft | 3 kts | 205° |
| 2026-05-01 10:15 | 40.67925 | -74.17979 | 30 ft | 5 kts | 205° |
| 2026-05-01 10:15 | 40.67884 | -74.18004 | 30 ft | 8 kts | 205° |
| 2026-05-01 10:15 | 40.67827 | -74.18040 | 30 ft | 10 kts | 206° |
| 2026-05-01 10:15 | 40.67759 | -74.18085 | 30 ft | 11 kts | 207° |
| 2026-05-01 10:16 | 40.67684 | -74.18122 | 30 ft | 12 kts | 180° |
| 2026-05-01 10:16 | 40.67606 | -74.18054 | 28 ft | 16 kts | 134° |
| 2026-05-01 10:16 | 40.67589 | -74.17911 | 28 ft | 7 kts | 26° |
| 2026-05-01 10:17 | 40.67642 | -74.17876 | 27 ft | 12 kts | 26° |
| 2026-05-01 10:17 | 40.68194 | -74.17531 | 28 ft | 103 kts | 25° |
| 2026-05-01 10:17 | 40.69044 | -74.16995 | 28 ft | 165 kts | 27° |
| 2026-05-01 10:18 | 40.71480 | -74.15429 | 576 ft | 217 kts | 23° |
| 2026-05-01 10:18 | 40.72921 | -74.14523 | 814 ft | 245 kts | 23° |
| 2026-05-01 10:18 | 40.74560 | -74.13493 | 1088 ft | 275 kts | 23° |
| 2026-05-01 10:19 | 40.76447 | -74.12943 | 1787 ft | 280 kts | 354° |
| 2026-05-01 10:19 | 40.78190 | -74.13854 | 3088 ft | 268 kts | 322° |
| 2026-05-01 10:19 | 40.79246 | -74.15817 | 4228 ft | 265 kts | 290° |
| 2026-05-01 10:20 | 40.78335 | -74.20224 | 6254 ft | 266 kts | 223° |
| 2026-05-01 10:20 | 40.76645 | -74.21229 | 7121 ft | 274 kts | 190° |
| 2026-05-01 10:20 | 40.74745 | -74.20855 | 7927 ft | 285 kts | 158° |
| 2026-05-01 10:20 | 40.73046 | -74.19434 | 8701 ft | 292 kts | 152° |
| 2026-05-01 10:21 | 40.71213 | -74.18300 | 9438 ft | 292 kts | 165° |
| 2026-05-01 10:21 | 40.67323 | -74.18111 | 9967 ft | 277 kts | 204° |
| 2026-05-01 10:21 | 40.65572 | -74.19120 | 9979 ft | 274 kts | 214° |
| 2026-05-01 10:22 | 40.62353 | -74.21730 | 9995 ft | 273 kts | 218° |
| 2026-05-01 10:22 | 40.59110 | -74.24370 | 10003 ft | 274 kts | 216° |
| 2026-05-01 10:23 | 40.57451 | -74.25620 | 9994 ft | 275 kts | 214° |
| 2026-05-01 10:23 | 40.53685 | -74.26809 | 9994 ft | 291 kts | 180° |
| 2026-05-01 10:23 | 40.51677 | -74.26304 | 9996 ft | 296 kts | 170° |
| 2026-05-01 10:24 | 40.47759 | -74.24494 | 9997 ft | 300 kts | 163° |
| 2026-05-01 10:24 | 40.43888 | -74.22406 | 9992 ft | 300 kts | 163° |
| 2026-05-01 10:25 | 40.40028 | -74.20393 | 9987 ft | 299 kts | 164° |
| 2026-05-01 10:25 | 40.36112 | -74.18431 | 10003 ft | 299 kts | 165° |
| 2026-05-01 10:26 | 40.34164 | -74.17469 | 9996 ft | 299 kts | 165° |
| 2026-05-01 10:26 | 40.32204 | -74.16591 | 10008 ft | 296 kts | 171° |
| 2026-05-01 10:26 | 40.28178 | -74.16023 | 10005 ft | 289 kts | 184° |
| 2026-05-01 10:27 | 40.24188 | -74.16047 | 10003 ft | 288 kts | 187° |
| 2026-05-01 10:27 | 40.20199 | -74.16188 | 9996 ft | 287 kts | 187° |
| 2026-05-01 10:28 | 40.18196 | -74.16228 | 10014 ft | 289 kts | 185° |
| 2026-05-01 10:28 | 40.14191 | -74.15302 | 10012 ft | 299 kts | 165° |
| 2026-05-01 10:28 | 40.12308 | -74.14117 | 10013 ft | 304 kts | 153° |
| 2026-05-01 10:29 | 40.09223 | -74.10256 | 10012 ft | 313 kts | 127° |
| 2026-05-01 10:29 | 40.08205 | -74.07738 | 9997 ft | 316 kts | 113° |
| 2026-05-01 10:30 | 40.06923 | -74.02264 | 9997 ft | 318 kts | 105° |
| 2026-05-01 10:30 | 40.05866 | -73.96620 | 9996 ft | 319 kts | 104° |
| 2026-05-01 10:31 | 40.04802 | -73.91040 | 9989 ft | 319 kts | 105° |
| 2026-05-01 10:31 | 40.03674 | -73.85395 | 10230 ft | 331 kts | 106° |
| 2026-05-01 10:32 | 40.02406 | -73.79207 | 10877 ft | 373 kts | 106° |
| 2026-05-01 10:32 | 40.01719 | -73.75859 | 11247 ft | 391 kts | 106° |
| 2026-05-01 10:32 | 40.00282 | -73.68851 | 12576 ft | 407 kts | 107° |
| 2026-05-01 10:33 | 39.98795 | -73.61606 | 13944 ft | 420 kts | 107° |
| 2026-05-01 10:33 | 39.97260 | -73.54151 | 15202 ft | 431 kts | 107° |
| 2026-05-01 10:34 | 39.96743 | -73.51646 | 15627 ft | 434 kts | 107° |
| 2026-05-01 10:34 | 39.95950 | -73.47810 | 16255 ft | 440 kts | 107° |
| 2026-05-01 10:34 | 39.95147 | -73.43934 | 16892 ft | 445 kts | 107° |
| 2026-05-01 10:35 | 39.93507 | -73.36047 | 18153 ft | 456 kts | 107° |
| 2026-05-01 10:35 | 39.92669 | -73.32027 | 18748 ft | 461 kts | 107° |
| 2026-05-01 10:35 | 39.91824 | -73.27980 | 19373 ft | 465 kts | 107° |
| 2026-05-01 10:35 | 39.90970 | -73.23895 | 20017 ft | 469 kts | 107° |
| 2026-05-01 10:36 | 39.89244 | -73.15671 | 21237 ft | 477 kts | 107° |
| 2026-05-01 10:36 | 39.88360 | -73.11472 | 21815 ft | 482 kts | 108° |
| 2026-05-01 10:36 | 39.87468 | -73.07243 | 22393 ft | 487 kts | 108° |
| 2026-05-01 10:37 | 39.86566 | -73.02974 | 23033 ft | 491 kts | 108° |
| 2026-05-01 10:37 | 39.84738 | -72.94347 | 24147 ft | 498 kts | 108° |
| 2026-05-01 10:37 | 39.83812 | -72.89990 | 24743 ft | 499 kts | 108° |
| 2026-05-01 10:38 | 39.82883 | -72.85625 | 25277 ft | 503 kts | 108° |
| 2026-05-01 10:38 | 39.81938 | -72.81215 | 25782 ft | 506 kts | 108° |
| 2026-05-01 10:38 | 39.80869 | -72.76839 | 26301 ft | 508 kts | 111° |
| 2026-05-01 10:38 | 39.79683 | -72.72496 | 26691 ft | 510 kts | 113° |
| 2026-05-01 10:39 | 39.78447 | -72.68156 | 26993 ft | 512 kts | 113° |
| 2026-05-01 10:39 | 39.77217 | -72.63854 | 27322 ft | 515 kts | 113° |
| 2026-05-01 10:39 | 39.75980 | -72.59478 | 27689 ft | 517 kts | 112° |
| 2026-05-01 10:39 | 39.74750 | -72.55067 | 28123 ft | 519 kts | 112° |
| 2026-05-01 10:40 | 39.73531 | -72.50647 | 28502 ft | 521 kts | 112° |
| 2026-05-01 10:40 | 39.72308 | -72.46187 | 28845 ft | 524 kts | 112° |
| 2026-05-01 10:40 | 39.71084 | -72.41713 | 28959 ft | 525 kts | 112° |
| 2026-05-01 10:40 | 39.69863 | -72.37245 | 29038 ft | 527 kts | 112° |
| 2026-05-01 10:41 | 39.68631 | -72.32751 | 29385 ft | 529 kts | 112° |
| 2026-05-01 10:41 | 39.67394 | -72.28254 | 29786 ft | 531 kts | 112° |
| 2026-05-01 10:41 | 39.64402 | -72.19506 | 30429 ft | 528 kts | 126° |
| 2026-05-01 10:42 | 39.62236 | -72.15667 | 30669 ft | 526 kts | 134° |
| 2026-05-01 10:42 | 39.59874 | -72.12117 | 30905 ft | 527 kts | 136° |
| 2026-05-01 10:42 | 39.57389 | -72.08589 | 31162 ft | 529 kts | 138° |
| 2026-05-01 10:42 | 39.54868 | -72.05106 | 31501 ft | 529 kts | 138° |
| 2026-05-01 10:43 | 39.52336 | -72.01637 | 31864 ft | 528 kts | 139° |
| 2026-05-01 10:43 | 39.49812 | -71.98178 | 32195 ft | 529 kts | 139° |
| 2026-05-01 10:43 | 39.47286 | -71.94704 | 32411 ft | 531 kts | 139° |
| 2026-05-01 10:43 | 39.44747 | -71.91202 | 32582 ft | 535 kts | 139° |
| 2026-05-01 10:44 | 39.42206 | -71.87686 | 32941 ft | 534 kts | 139° |
| 2026-05-01 10:44 | 39.39711 | -71.84228 | 33287 ft | 533 kts | 139° |
| 2026-05-01 10:44 | 39.37172 | -71.80712 | 33577 ft | 534 kts | 139° |
| 2026-05-01 10:44 | 39.34635 | -71.77203 | 33865 ft | 535 kts | 139° |
| 2026-05-01 10:45 | 39.32094 | -71.73692 | 34117 ft | 535 kts | 139° |
| 2026-05-01 10:45 | 39.29545 | -71.70174 | 34405 ft | 535 kts | 139° |
| 2026-05-01 10:45 | 39.27003 | -71.66670 | 34685 ft | 534 kts | 139° |
| 2026-05-01 10:45 | 39.24466 | -71.63178 | 34973 ft | 533 kts | 139° |
| 2026-05-01 10:46 | 39.21920 | -71.59707 | 35229 ft | 532 kts | 141° |
| 2026-05-01 10:46 | 39.19173 | -71.56575 | 35458 ft | 523 kts | 150° |
| 2026-05-01 10:46 | 39.16230 | -71.53858 | 35714 ft | 519 kts | 152° |
| 2026-05-01 10:46 | 39.13240 | -71.51261 | 35991 ft | 517 kts | 153° |
| 2026-05-01 10:47 | 39.10217 | -71.48719 | 36234 ft | 516 kts | 154° |
| 2026-05-01 10:47 | 39.07194 | -71.46218 | 36442 ft | 516 kts | 154° |
| 2026-05-01 10:47 | 39.04167 | -71.43725 | 36680 ft | 516 kts | 154° |
| 2026-05-01 10:47 | 39.01145 | -71.41231 | 36908 ft | 517 kts | 154° |
| 2026-05-01 10:48 | 38.98104 | -71.38719 | 36946 ft | 521 kts | 154° |
| 2026-05-01 10:48 | 38.91983 | -71.33646 | 36943 ft | 524 kts | 154° |
| 2026-05-01 10:49 | 38.85844 | -71.28549 | 36945 ft | 525 kts | 154° |
| 2026-05-01 10:49 | 38.79714 | -71.23468 | 36944 ft | 525 kts | 154° |
| 2026-05-01 10:50 | 38.73576 | -71.18394 | 36946 ft | 525 kts | 154° |
| 2026-05-01 10:50 | 38.67464 | -71.13354 | 36940 ft | 526 kts | 155° |
| 2026-05-01 10:51 | 38.61271 | -71.08261 | 36944 ft | 528 kts | 155° |
| 2026-05-01 10:51 | 38.55083 | -71.03180 | 36944 ft | 528 kts | 155° |
| 2026-05-01 10:52 | 38.48891 | -70.98104 | 36941 ft | 528 kts | 155° |
| 2026-05-01 10:52 | 38.42732 | -70.93066 | 36930 ft | 529 kts | 155° |
| 2026-05-01 10:53 | 38.36507 | -70.87990 | 36930 ft | 531 kts | 155° |
| 2026-05-01 10:53 | 38.30273 | -70.82912 | 36947 ft | 531 kts | 155° |
| 2026-05-01 10:54 | 38.24049 | -70.77852 | 36947 ft | 530 kts | 155° |
| 2026-05-01 10:54 | 38.17860 | -70.72832 | 36910 ft | 530 kts | 156° |
| 2026-05-01 10:55 | 38.11593 | -70.67766 | 36945 ft | 536 kts | 156° |
| 2026-05-01 10:55 | 38.05392 | -70.62757 | 36947 ft | 536 kts | 156° |
| 2026-05-01 10:56 | 37.99030 | -70.57850 | 36945 ft | 530 kts | 161° |
| 2026-05-01 10:56 | 37.92488 | -70.53601 | 36906 ft | 528 kts | 162° |
| 2026-05-01 10:57 | 37.85886 | -70.49462 | 36947 ft | 529 kts | 163° |
| 2026-05-01 10:57 | 37.79293 | -70.45353 | 36944 ft | 529 kts | 163° |
| 2026-05-01 10:58 | 37.72665 | -70.41216 | 37281 ft | 529 kts | 162° |
| 2026-05-01 10:58 | 37.69366 | -70.39153 | 37602 ft | 528 kts | 162° |
| 2026-05-01 10:58 | 37.66082 | -70.37101 | 37738 ft | 528 kts | 162° |
| 2026-05-01 10:59 | 37.59442 | -70.32968 | 37920 ft | 533 kts | 162° |
| 2026-05-01 10:59 | 37.52802 | -70.28835 | 37944 ft | 531 kts | 162° |
| 2026-05-01 11:00 | 37.46174 | -70.24718 | 37946 ft | 530 kts | 162° |
| 2026-05-01 11:00 | 37.39550 | -70.20614 | 37946 ft | 531 kts | 163° |
| 2026-05-01 11:01 | 37.32950 | -70.16536 | 37949 ft | 532 kts | 163° |
| 2026-05-01 11:01 | 37.26302 | -70.12433 | 37946 ft | 532 kts | 163° |
| 2026-05-01 11:02 | 37.19642 | -70.08330 | 37945 ft | 532 kts | 163° |
| 2026-05-01 11:02 | 37.12992 | -70.04244 | 37944 ft | 534 kts | 163° |
| 2026-05-01 11:03 | 37.06308 | -70.00146 | 37945 ft | 535 kts | 163° |
| 2026-05-01 11:03 | 36.99625 | -69.96053 | 37947 ft | 535 kts | 163° |
| 2026-05-01 11:04 | 36.92970 | -69.91985 | 37940 ft | 535 kts | 163° |
| 2026-05-01 11:04 | 36.86265 | -69.87897 | 37936 ft | 536 kts | 163° |
| 2026-05-01 11:05 | 36.79560 | -69.83816 | 37937 ft | 536 kts | 163° |
| 2026-05-01 11:05 | 36.72860 | -69.79743 | 37939 ft | 535 kts | 163° |
| 2026-05-01 11:06 | 36.66152 | -69.75676 | 37939 ft | 535 kts | 163° |
| 2026-05-01 11:06 | 36.59451 | -69.71622 | 37938 ft | 535 kts | 163° |
| 2026-05-01 11:07 | 36.49404 | -69.65558 | 37933 ft | 535 kts | 163° |
| 2026-05-01 11:07 | 36.42746 | -69.61549 | 37934 ft | 535 kts | 163° |
| 2026-05-01 11:08 | 36.36000 | -69.57494 | 37935 ft | 535 kts | 163° |
| 2026-05-01 11:09 | 36.25956 | -69.51472 | 37925 ft | 534 kts | 162° |
| 2026-05-01 11:09 | 36.19263 | -69.47467 | 37931 ft | 533 kts | 163° |
| 2026-05-01 11:10 | 36.12913 | -69.42560 | 37884 ft | 546 kts | 151° |
| 2026-05-01 11:10 | 36.09836 | -69.39716 | 37933 ft | 548 kts | 149° |
| 2026-05-01 11:10 | 36.03805 | -69.33937 | 37927 ft | 549 kts | 149° |
| 2026-05-01 11:11 | 35.97784 | -69.28130 | 37930 ft | 548 kts | 149° |
| 2026-05-01 11:11 | 35.91790 | -69.22392 | 37927 ft | 548 kts | 149° |
| 2026-05-01 11:12 | 35.85751 | -69.16646 | 37883 ft | 548 kts | 149° |
| 2026-05-01 11:12 | 35.79712 | -69.10918 | 37917 ft | 547 kts | 149° |
| 2026-05-01 11:13 | 35.74687 | -69.06160 | 37925 ft | 547 kts | 149° |
| 2026-05-01 11:13 | 35.68641 | -69.00445 | 37919 ft | 547 kts | 149° |
| 2026-05-01 11:14 | 35.62605 | -68.94750 | 37923 ft | 547 kts | 149° |
| 2026-05-01 11:14 | 35.56601 | -68.89095 | 37873 ft | 547 kts | 149° |
| 2026-05-01 11:15 | 35.50557 | -68.83414 | 37914 ft | 546 kts | 149° |
| 2026-05-01 11:15 | 35.44530 | -68.77758 | 37914 ft | 544 kts | 149° |
| 2026-05-01 11:16 | 35.38508 | -68.72119 | 37909 ft | 544 kts | 149° |
| 2026-05-01 11:16 | 35.32476 | -68.66484 | 37909 ft | 544 kts | 149° |
| 2026-05-01 11:17 | 35.26480 | -68.60891 | 37900 ft | 545 kts | 149° |
| 2026-05-01 11:17 | 35.20442 | -68.55271 | 37906 ft | 545 kts | 149° |
| 2026-05-01 11:18 | 35.14404 | -68.49661 | 37908 ft | 544 kts | 149° |
| 2026-05-01 11:18 | 35.08371 | -68.44064 | 37908 ft | 543 kts | 150° |
| 2026-05-01 11:19 | 35.02348 | -68.38489 | 37906 ft | 543 kts | 150° |
| 2026-05-01 11:19 | 34.96316 | -68.32918 | 37902 ft | 545 kts | 150° |
| 2026-05-01 11:20 | 34.90261 | -68.27337 | 37904 ft | 546 kts | 150° |
| 2026-05-01 11:20 | 34.84206 | -68.21763 | 37904 ft | 546 kts | 150° |
| 2026-05-01 11:21 | 34.78138 | -68.16187 | 37895 ft | 546 kts | 150° |
| 2026-05-01 11:21 | 34.72068 | -68.10621 | 37903 ft | 545 kts | 150° |
| 2026-05-01 11:22 | 34.66010 | -68.05078 | 37902 ft | 546 kts | 150° |
| 2026-05-01 11:22 | 34.59925 | -67.99521 | 37907 ft | 547 kts | 150° |
| 2026-05-01 11:23 | 34.53839 | -67.93972 | 37904 ft | 547 kts | 150° |
| 2026-05-01 11:23 | 34.47758 | -67.88437 | 37903 ft | 547 kts | 150° |
| 2026-05-01 11:24 | 34.41670 | -67.82907 | 37853 ft | 547 kts | 150° |
| 2026-05-01 11:25 | 34.32507 | -67.74605 | 37896 ft | 548 kts | 150° |
| 2026-05-01 11:25 | 34.23338 | -67.66318 | 37897 ft | 548 kts | 150° |
| 2026-05-01 11:26 | 34.14117 | -67.58315 | 37895 ft | 539 kts | 159° |
| 2026-05-01 11:27 | 34.07393 | -67.54581 | 37908 ft | 530 kts | 166° |
| 2026-05-01 11:27 | 34.00568 | -67.51268 | 37897 ft | 528 kts | 167° |
| 2026-05-01 11:28 | 33.93722 | -67.48022 | 37892 ft | 528 kts | 167° |
| 2026-05-01 11:28 | 33.86893 | -67.44767 | 37894 ft | 528 kts | 167° |
| 2026-05-01 11:29 | 33.76648 | -67.39855 | 37896 ft | 528 kts | 167° |
| 2026-05-01 11:30 | 33.66454 | -67.34973 | 37898 ft | 528 kts | 167° |
| 2026-05-01 11:30 | 33.59613 | -67.31704 | 37860 ft | 528 kts | 167° |
| 2026-05-01 11:31 | 33.52731 | -67.28423 | 37902 ft | 528 kts | 167° |
| 2026-05-01 11:31 | 33.45883 | -67.25163 | 37905 ft | 528 kts | 167° |
| 2026-05-01 11:32 | 33.39052 | -67.21917 | 37910 ft | 528 kts | 167° |
| 2026-05-01 11:32 | 33.32213 | -67.18673 | 37863 ft | 528 kts | 166° |
| 2026-05-01 11:33 | 33.25375 | -67.15435 | 37909 ft | 528 kts | 166° |
| 2026-05-01 11:33 | 33.18583 | -67.12224 | 37908 ft | 528 kts | 166° |
| 2026-05-01 11:34 | 33.11746 | -67.08997 | 37907 ft | 528 kts | 167° |
| 2026-05-01 11:34 | 33.04899 | -67.05770 | 37883 ft | 528 kts | 166° |
| 2026-05-01 11:35 | 32.98053 | -67.02550 | 37910 ft | 528 kts | 166° |
| 2026-05-01 11:35 | 32.91216 | -66.99339 | 37914 ft | 528 kts | 166° |
| 2026-05-01 11:36 | 32.84378 | -66.96133 | 37914 ft | 528 kts | 166° |
| 2026-05-01 11:36 | 32.77576 | -66.92949 | 37875 ft | 528 kts | 166° |
| 2026-05-01 11:37 | 32.70702 | -66.89740 | 37929 ft | 526 kts | 166° |
| 2026-05-01 11:37 | 32.63916 | -66.86579 | 37918 ft | 527 kts | 166° |
| 2026-05-01 11:38 | 32.57080 | -66.83391 | 37925 ft | 527 kts | 166° |
| 2026-05-01 11:38 | 32.50239 | -66.80207 | 37892 ft | 527 kts | 166° |
| 2026-05-01 11:39 | 32.43418 | -66.77039 | 37934 ft | 526 kts | 166° |
| 2026-05-01 11:39 | 32.36599 | -66.73877 | 37934 ft | 525 kts | 166° |
| 2026-05-01 11:40 | 32.29795 | -66.70729 | 37925 ft | 525 kts | 166° |
| 2026-05-01 11:40 | 32.22968 | -66.67576 | 37911 ft | 525 kts | 166° |
| 2026-05-01 11:41 | 32.16201 | -66.64455 | 37938 ft | 525 kts | 166° |
| 2026-05-01 11:41 | 32.09401 | -66.61324 | 37941 ft | 525 kts | 166° |
| 2026-05-01 11:42 | 32.02581 | -66.58188 | 37943 ft | 525 kts | 166° |
| 2026-05-01 11:42 | 31.95776 | -66.55065 | 37940 ft | 525 kts | 166° |
| 2026-05-01 11:43 | 31.88962 | -66.51943 | 37950 ft | 525 kts | 166° |
| 2026-05-01 11:43 | 31.82136 | -66.48819 | 37949 ft | 526 kts | 166° |
| 2026-05-01 11:44 | 31.71912 | -66.44149 | 37949 ft | 526 kts | 166° |
| 2026-05-01 11:44 | 31.65094 | -66.41042 | 37947 ft | 526 kts | 166° |
| 2026-05-01 11:45 | 31.58268 | -66.37936 | 37958 ft | 526 kts | 166° |
| 2026-05-01 11:45 | 31.51448 | -66.34837 | 37960 ft | 526 kts | 166° |
| 2026-05-01 11:46 | 31.44624 | -66.31742 | 37960 ft | 525 kts | 166° |
| 2026-05-01 11:46 | 31.37834 | -66.28666 | 37948 ft | 525 kts | 165° |
| 2026-05-01 11:47 | 31.31002 | -66.25577 | 37963 ft | 526 kts | 166° |
| 2026-05-01 11:47 | 31.24176 | -66.22496 | 37969 ft | 525 kts | 165° |
| 2026-05-01 11:48 | 31.17349 | -66.19418 | 37971 ft | 525 kts | 165° |
| 2026-05-01 11:48 | 31.10524 | -66.16345 | 37972 ft | 525 kts | 165° |
| 2026-05-01 11:49 | 31.03703 | -66.13280 | 37974 ft | 525 kts | 165° |
| 2026-05-01 11:49 | 30.98026 | -66.10733 | 37974 ft | 525 kts | 165° |
| 2026-05-01 11:50 | 30.91202 | -66.07674 | 37977 ft | 525 kts | 165° |
| 2026-05-01 11:50 | 30.84362 | -66.04614 | 37977 ft | 525 kts | 165° |
| 2026-05-01 11:51 | 30.77528 | -66.01561 | 37978 ft | 526 kts | 165° |
| 2026-05-01 11:51 | 30.70692 | -65.98512 | 37983 ft | 526 kts | 165° |
| 2026-05-01 11:52 | 30.63853 | -65.95465 | 37982 ft | 526 kts | 165° |
| 2026-05-01 11:52 | 30.57062 | -65.92445 | 37989 ft | 526 kts | 165° |
| 2026-05-01 11:53 | 30.50219 | -65.89407 | 37987 ft | 527 kts | 165° |
| 2026-05-01 11:53 | 30.43357 | -65.86364 | 37991 ft | 528 kts | 165° |
| 2026-05-01 11:54 | 30.36488 | -65.83323 | 37991 ft | 528 kts | 165° |
| 2026-05-01 11:54 | 30.29616 | -65.80284 | 37990 ft | 528 kts | 165° |
| 2026-05-01 11:55 | 30.22742 | -65.77251 | 37993 ft | 529 kts | 165° |
| 2026-05-01 11:55 | 30.15898 | -65.74235 | 38007 ft | 529 kts | 165° |
| 2026-05-01 11:56 | 30.08997 | -65.71198 | 38006 ft | 530 kts | 165° |
| 2026-05-01 11:56 | 30.02110 | -65.68171 | 38006 ft | 530 kts | 165° |
| 2026-05-01 11:57 | 29.95211 | -65.65144 | 38002 ft | 531 kts | 165° |
| 2026-05-01 11:57 | 29.88295 | -65.62116 | 38007 ft | 532 kts | 165° |
| 2026-05-01 11:58 | 29.81366 | -65.59084 | 38007 ft | 532 kts | 165° |
| 2026-05-01 11:59 | 29.70991 | -65.54552 | 38004 ft | 532 kts | 165° |
| 2026-05-01 11:59 | 29.64056 | -65.51530 | 38007 ft | 533 kts | 165° |
| 2026-05-01 12:00 | 29.53642 | -65.47000 | 38009 ft | 534 kts | 165° |
| 2026-05-01 12:01 | 29.43240 | -65.42574 | 38024 ft | 530 kts | 170° |
| 2026-05-01 12:01 | 29.36112 | -65.40689 | 38018 ft | 525 kts | 175° |
| 2026-05-01 12:02 | 29.28948 | -65.39084 | 38017 ft | 524 kts | 176° |
| 2026-05-01 12:02 | 29.21780 | -65.37526 | 38020 ft | 524 kts | 176° |
| 2026-05-01 12:03 | 29.14616 | -65.35957 | 38023 ft | 524 kts | 176° |
| 2026-05-01 12:03 | 29.07433 | -65.34373 | 38017 ft | 526 kts | 176° |
| 2026-05-01 12:04 | 29.00234 | -65.32781 | 38021 ft | 527 kts | 176° |
| 2026-05-01 12:04 | 28.93043 | -65.31193 | 38020 ft | 527 kts | 176° |
| 2026-05-01 12:05 | 28.85841 | -65.29605 | 38001 ft | 527 kts | 175° |
| 2026-05-01 12:05 | 28.75079 | -65.27238 | 38028 ft | 527 kts | 175° |
| 2026-05-01 12:06 | 28.67862 | -65.25653 | 38028 ft | 527 kts | 175° |
| 2026-05-01 12:06 | 28.60637 | -65.24069 | 38030 ft | 527 kts | 175° |
| 2026-05-01 12:07 | 28.53425 | -65.22490 | 38036 ft | 528 kts | 175° |
| 2026-05-01 12:07 | 28.46212 | -65.20913 | 38035 ft | 528 kts | 175° |
| 2026-05-01 12:08 | 28.39037 | -65.19346 | 38036 ft | 528 kts | 175° |
| 2026-05-01 12:08 | 28.31770 | -65.17762 | 38036 ft | 528 kts | 175° |
| 2026-05-01 12:09 | 28.24595 | -65.16199 | 38037 ft | 528 kts | 175° |
| 2026-05-01 12:09 | 28.17371 | -65.14628 | 38038 ft | 528 kts | 175° |
| 2026-05-01 12:10 | 28.06521 | -65.12273 | 38039 ft | 528 kts | 175° |
| 2026-05-01 12:11 | 27.95694 | -65.09928 | 38040 ft | 527 kts | 175° |
| 2026-05-01 12:11 | 27.88479 | -65.08367 | 38045 ft | 527 kts | 175° |
| 2026-05-01 12:12 | 27.81265 | -65.06810 | 38045 ft | 527 kts | 175° |
| 2026-05-01 12:12 | 27.74097 | -65.05264 | 38045 ft | 527 kts | 175° |
| 2026-05-01 12:13 | 27.66895 | -65.03713 | 38045 ft | 526 kts | 174° |
| 2026-05-01 12:13 | 27.59693 | -65.02163 | 38045 ft | 526 kts | 174° |
| 2026-05-01 12:14 | 27.52499 | -65.00618 | 38045 ft | 526 kts | 174° |
| 2026-05-01 12:14 | 27.45302 | -64.99074 | 38218 ft | 524 kts | 174° |
| 2026-05-01 12:15 | 27.41723 | -64.98306 | 38490 ft | 523 kts | 174° |
| 2026-05-01 12:15 | 27.38134 | -64.97538 | 38551 ft | 525 kts | 174° |
| 2026-05-01 12:15 | 27.30953 | -64.96003 | 38551 ft | 524 kts | 174° |
| 2026-05-01 12:16 | 27.23828 | -64.94481 | 38548 ft | 524 kts | 174° |
| 2026-05-01 12:16 | 27.16661 | -64.92951 | 38528 ft | 524 kts | 174° |
| 2026-05-01 12:17 | 27.09493 | -64.91424 | 38548 ft | 523 kts | 174° |
| 2026-05-01 12:17 | 27.02330 | -64.89898 | 38548 ft | 523 kts | 174° |
| 2026-05-01 12:18 | 26.95176 | -64.88378 | 38553 ft | 523 kts | 174° |
| 2026-05-01 12:18 | 26.88022 | -64.86860 | 38535 ft | 523 kts | 173° |
| 2026-05-01 12:19 | 26.80926 | -64.85355 | 38554 ft | 522 kts | 173° |
| 2026-05-01 12:19 | 26.73782 | -64.83842 | 38556 ft | 521 kts | 173° |
| 2026-05-01 12:20 | 26.66641 | -64.82332 | 38555 ft | 521 kts | 173° |
| 2026-05-01 12:20 | 26.59505 | -64.80826 | 38544 ft | 521 kts | 173° |
| 2026-05-01 12:21 | 26.52380 | -64.79323 | 38558 ft | 521 kts | 173° |
| 2026-05-01 12:21 | 26.45268 | -64.77825 | 38559 ft | 520 kts | 173° |
| 2026-05-01 12:22 | 26.38142 | -64.76325 | 38561 ft | 520 kts | 173° |
| 2026-05-01 12:22 | 26.31021 | -64.74829 | 38562 ft | 520 kts | 173° |
| 2026-05-01 12:23 | 26.23948 | -64.73345 | 38563 ft | 519 kts | 173° |
| 2026-05-01 12:23 | 26.16800 | -64.71846 | 38565 ft | 519 kts | 173° |
| 2026-05-01 12:24 | 26.09742 | -64.70369 | 38565 ft | 519 kts | 173° |
| 2026-05-01 12:24 | 26.02595 | -64.68875 | 38571 ft | 519 kts | 173° |
| 2026-05-01 12:25 | 25.92008 | -64.66664 | 38570 ft | 517 kts | 173° |
| 2026-05-01 12:26 | 25.84936 | -64.65190 | 38575 ft | 517 kts | 173° |
| 2026-05-01 12:26 | 25.74312 | -64.62980 | 38572 ft | 517 kts | 173° |
| 2026-05-01 12:27 | 25.63748 | -64.60785 | 38573 ft | 515 kts | 173° |
| 2026-05-01 12:28 | 25.53177 | -64.58593 | 38572 ft | 514 kts | 173° |
| 2026-05-01 12:29 | 25.42619 | -64.56406 | 38578 ft | 514 kts | 173° |
| 2026-05-01 12:29 | 25.33245 | -64.54470 | 38577 ft | 514 kts | 173° |
| 2026-05-01 12:30 | 25.22672 | -64.52289 | 38578 ft | 515 kts | 173° |
| 2026-05-01 12:31 | 25.15630 | -64.50839 | 38579 ft | 515 kts | 173° |
| 2026-05-01 12:31 | 25.08593 | -64.49391 | 38581 ft | 514 kts | 173° |
| 2026-05-01 12:32 | 25.01561 | -64.47946 | 38577 ft | 513 kts | 173° |
| 2026-05-01 12:32 | 24.91060 | -64.45791 | 38577 ft | 513 kts | 173° |
| 2026-05-01 12:33 | 24.84026 | -64.44350 | 38583 ft | 513 kts | 172° |
| 2026-05-01 12:33 | 24.77001 | -64.42912 | 38585 ft | 512 kts | 172° |
| 2026-05-01 12:34 | 24.69988 | -64.41478 | 38588 ft | 512 kts | 172° |
| 2026-05-01 12:34 | 24.62983 | -64.40047 | 38585 ft | 512 kts | 172° |
| 2026-05-01 12:35 | 24.55974 | -64.38618 | 38574 ft | 512 kts | 173° |
| 2026-05-01 12:35 | 24.48983 | -64.37194 | 38573 ft | 510 kts | 172° |
| 2026-05-01 12:36 | 24.41997 | -64.35772 | 38587 ft | 509 kts | 172° |
| 2026-05-01 12:36 | 24.35034 | -64.34357 | 38583 ft | 509 kts | 172° |
| 2026-05-01 12:37 | 24.28113 | -64.32951 | 38586 ft | 509 kts | 172° |
| 2026-05-01 12:37 | 24.21151 | -64.31540 | 38582 ft | 508 kts | 172° |
| 2026-05-01 12:38 | 24.14175 | -64.30127 | 38579 ft | 508 kts | 172° |
| 2026-05-01 12:38 | 24.07216 | -64.28718 | 38578 ft | 508 kts | 172° |
| 2026-05-01 12:39 | 24.00256 | -64.27311 | 38583 ft | 508 kts | 172° |
| 2026-05-01 12:39 | 23.93343 | -64.25916 | 38581 ft | 509 kts | 172° |
| 2026-05-01 12:40 | 23.86371 | -64.24510 | 38581 ft | 509 kts | 172° |
| 2026-05-01 12:40 | 23.79396 | -64.23104 | 38582 ft | 509 kts | 172° |
| 2026-05-01 12:41 | 23.72419 | -64.21700 | 38587 ft | 510 kts | 172° |
| 2026-05-01 12:41 | 23.65428 | -64.20294 | 38566 ft | 509 kts | 172° |
| 2026-05-01 12:42 | 23.58421 | -64.18887 | 38578 ft | 508 kts | 172° |
| 2026-05-01 12:42 | 23.51506 | -64.17499 | 38579 ft | 508 kts | 172° |
| 2026-05-01 12:43 | 23.44550 | -64.16106 | 38580 ft | 508 kts | 172° |
| 2026-05-01 12:43 | 23.37603 | -64.14715 | 38582 ft | 508 kts | 172° |
| 2026-05-01 12:44 | 23.30647 | -64.13323 | 38579 ft | 506 kts | 173° |
| 2026-05-01 12:45 | 23.16813 | -64.10562 | 38579 ft | 504 kts | 173° |
| 2026-05-01 12:45 | 23.09952 | -64.09195 | 38577 ft | 504 kts | 173° |
| 2026-05-01 12:46 | 23.03051 | -64.07820 | 38576 ft | 504 kts | 173° |
| 2026-05-01 12:46 | 22.96154 | -64.06447 | 38574 ft | 502 kts | 173° |
| 2026-05-01 12:47 | 22.89285 | -64.05083 | 38572 ft | 502 kts | 173° |
| 2026-05-01 12:47 | 22.82406 | -64.03721 | 38571 ft | 502 kts | 173° |
| 2026-05-01 12:48 | 22.78976 | -64.03042 | 38846 ft | 496 kts | 173° |
| 2026-05-01 12:48 | 22.75616 | -64.02372 | 39314 ft | 487 kts | 173° |
| 2026-05-01 12:48 | 22.72307 | -64.01709 | 39530 ft | 480 kts | 174° |
| 2026-05-01 12:48 | 22.69039 | -64.01058 | 39568 ft | 476 kts | 174° |
| 2026-05-01 12:49 | 22.62532 | -63.99773 | 39568 ft | 475 kts | 174° |
| 2026-05-01 12:49 | 22.56033 | -63.98494 | 39564 ft | 475 kts | 174° |
| 2026-05-01 12:50 | 22.49567 | -63.97219 | 39575 ft | 475 kts | 174° |
| 2026-05-01 12:50 | 22.43061 | -63.95935 | 39562 ft | 475 kts | 174° |
| 2026-05-01 12:51 | 22.36561 | -63.94654 | 39571 ft | 475 kts | 174° |
| 2026-05-01 12:52 | 22.26808 | -63.92733 | 39562 ft | 475 kts | 174° |
| 2026-05-01 12:52 | 22.17044 | -63.90813 | 39564 ft | 475 kts | 174° |
| 2026-05-01 12:53 | 22.07345 | -63.88906 | 39565 ft | 472 kts | 175° |
| 2026-05-01 12:54 | 22.00837 | -63.87630 | 39568 ft | 472 kts | 175° |
| 2026-05-01 12:54 | 21.91180 | -63.85740 | 39564 ft | 472 kts | 175° |
| 2026-05-01 12:55 | 21.81478 | -63.83846 | 39560 ft | 471 kts | 176° |
| 2026-05-01 12:56 | 21.75071 | -63.82592 | 39553 ft | 470 kts | 176° |
| 2026-05-01 12:56 | 21.68635 | -63.81333 | 39558 ft | 470 kts | 176° |
| 2026-05-01 12:57 | 21.62200 | -63.80078 | 39558 ft | 470 kts | 176° |
| 2026-05-01 12:57 | 21.52542 | -63.78196 | 39548 ft | 470 kts | 177° |
| 2026-05-01 12:58 | 21.46113 | -63.76943 | 39558 ft | 467 kts | 177° |
| 2026-05-01 12:59 | 21.36520 | -63.75079 | 39559 ft | 467 kts | 177° |
| 2026-05-01 12:59 | 21.26922 | -63.73217 | 39559 ft | 467 kts | 177° |
| 2026-05-01 13:00 | 21.17275 | -63.71348 | 39561 ft | 467 kts | 177° |
| 2026-05-01 13:01 | 21.07672 | -63.69488 | 39556 ft | 467 kts | 177° |
| 2026-05-01 13:02 | 20.98062 | -63.67630 | 39556 ft | 467 kts | 177° |
| 2026-05-01 13:07 | 20.28821 | -63.51705 | 39539 ft | 471 kts | 174° |
| 2026-05-01 13:08 | 20.22462 | -63.50134 | 39555 ft | 471 kts | 174° |
| 2026-05-01 13:08 | 20.16071 | -63.48555 | 39552 ft | 471 kts | 174° |
| 2026-05-01 13:09 | 20.09673 | -63.46976 | 39551 ft | 471 kts | 174° |
| 2026-05-01 13:09 | 20.03274 | -63.45398 | 39550 ft | 471 kts | 174° |
| 2026-05-01 13:10 | 19.96869 | -63.43820 | 39542 ft | 471 kts | 174° |
| 2026-05-01 13:10 | 19.90473 | -63.42245 | 39548 ft | 472 kts | 174° |
| 2026-05-01 13:11 | 19.84073 | -63.40672 | 39551 ft | 472 kts | 174° |
| 2026-05-01 13:11 | 19.77670 | -63.39098 | 39549 ft | 472 kts | 174° |
| 2026-05-01 13:12 | 19.71277 | -63.37528 | 39543 ft | 471 kts | 174° |
| 2026-05-01 13:12 | 19.64879 | -63.35958 | 39546 ft | 471 kts | 175° |
| 2026-05-01 13:13 | 19.58479 | -63.34388 | 39548 ft | 471 kts | 175° |
| 2026-05-01 13:13 | 19.52132 | -63.32834 | 39549 ft | 471 kts | 175° |
| 2026-05-01 13:14 | 19.45734 | -63.31269 | 39545 ft | 471 kts | 175° |
| 2026-05-01 13:14 | 19.39351 | -63.29708 | 39546 ft | 471 kts | 175° |
| 2026-05-01 13:15 | 19.32957 | -63.28145 | 39541 ft | 471 kts | 175° |
| 2026-05-01 13:15 | 19.26568 | -63.26586 | 39539 ft | 471 kts | 175° |
| 2026-05-01 13:16 | 19.20224 | -63.25038 | 39544 ft | 471 kts | 175° |
| 2026-05-01 13:16 | 19.13830 | -63.23479 | 39538 ft | 471 kts | 175° |
| 2026-05-01 13:17 | 19.01051 | -63.20368 | 39535 ft | 471 kts | 175° |
| 2026-05-01 13:18 | 18.91485 | -63.18041 | 39531 ft | 470 kts | 175° |
| 2026-05-01 13:18 | 18.85108 | -63.16493 | 39531 ft | 470 kts | 175° |
| 2026-05-01 13:19 | 18.78738 | -63.14947 | 39529 ft | 470 kts | 175° |
| 2026-05-01 13:20 | 18.69167 | -63.12627 | 39528 ft | 471 kts | 175° |
| 2026-05-01 13:20 | 18.62761 | -63.11077 | 39529 ft | 473 kts | 175° |
| 2026-05-01 13:21 | 18.53128 | -63.08745 | 39529 ft | 473 kts | 175° |
| 2026-05-01 13:21 | 18.46702 | -63.07190 | 39528 ft | 473 kts | 175° |
| 2026-05-01 13:22 | 18.40285 | -63.05640 | 39514 ft | 473 kts | 175° |
| 2026-05-01 13:22 | 18.33861 | -63.04089 | 39527 ft | 473 kts | 175° |
| 2026-05-01 13:23 | 18.27436 | -63.02539 | 39520 ft | 473 kts | 175° |
| 2026-05-01 13:23 | 18.21000 | -63.00987 | 39519 ft | 474 kts | 175° |
| 2026-05-01 13:24 | 18.14573 | -62.99439 | 39520 ft | 474 kts | 175° |
| 2026-05-01 13:25 | 18.04977 | -62.97131 | 39542 ft | 473 kts | 174° |
| 2026-05-01 13:25 | 17.98550 | -62.95586 | 39545 ft | 473 kts | 174° |
| 2026-05-01 13:26 | 17.92129 | -62.94043 | 39547 ft | 473 kts | 174° |
| 2026-05-01 13:26 | 17.85713 | -62.92502 | 39548 ft | 473 kts | 174° |
| 2026-05-01 13:27 | 17.79289 | -62.90962 | 39544 ft | 473 kts | 174° |
| 2026-05-01 13:27 | 17.69658 | -62.88655 | 39534 ft | 474 kts | 174° |
| 2026-05-01 13:28 | 17.60014 | -62.86346 | 39519 ft | 474 kts | 174° |
| 2026-05-01 13:29 | 17.47169 | -62.83210 | 39537 ft | 478 kts | 168° |
| 2026-05-01 13:31 | 17.28299 | -62.75492 | 39544 ft | 487 kts | 164° |
| 2026-05-01 13:32 | 17.12573 | -62.68995 | 39516 ft | 487 kts | 165° |
| 2026-05-01 13:33 | 16.96856 | -62.62541 | 39520 ft | 484 kts | 165° |
| 2026-05-01 13:34 | 16.84295 | -62.57390 | 39516 ft | 484 kts | 165° |
| 2026-05-01 13:35 | 16.74920 | -62.53551 | 39517 ft | 484 kts | 164° |
| 2026-05-01 13:36 | 16.65467 | -62.49683 | 39525 ft | 485 kts | 164° |
| 2026-05-01 13:36 | 16.56074 | -62.45844 | 39517 ft | 485 kts | 164° |
| 2026-05-01 13:37 | 16.50796 | -62.43688 | 39520 ft | 485 kts | 164° |
| 2026-05-01 13:37 | 16.43478 | -62.40700 | 39516 ft | 486 kts | 165° |
| 2026-05-01 13:38 | 16.34022 | -62.36845 | 39517 ft | 487 kts | 165° |
| 2026-05-01 13:39 | 16.27718 | -62.34277 | 39517 ft | 487 kts | 165° |
| 2026-05-01 13:39 | 16.21409 | -62.31708 | 39518 ft | 487 kts | 165° |
| 2026-05-01 13:40 | 16.15092 | -62.29138 | 39516 ft | 487 kts | 165° |
| 2026-05-01 13:40 | 16.08789 | -62.26575 | 39516 ft | 487 kts | 165° |
| 2026-05-01 13:41 | 16.02469 | -62.24008 | 39518 ft | 487 kts | 165° |
| 2026-05-01 13:41 | 15.97227 | -62.21879 | 39519 ft | 486 kts | 164° |
| 2026-05-01 13:42 | 15.90929 | -62.19323 | 39518 ft | 486 kts | 164° |
| 2026-05-01 13:42 | 15.84626 | -62.16767 | 39518 ft | 486 kts | 164° |
| 2026-05-01 13:43 | 15.78363 | -62.14230 | 39508 ft | 485 kts | 164° |
| 2026-05-01 13:43 | 15.72062 | -62.11678 | 39518 ft | 486 kts | 164° |
| 2026-05-01 13:44 | 15.65763 | -62.09129 | 39518 ft | 485 kts | 164° |
| 2026-05-01 13:44 | 15.59458 | -62.06579 | 39518 ft | 485 kts | 164° |
| 2026-05-01 13:45 | 15.53163 | -62.04035 | 39520 ft | 485 kts | 164° |
| 2026-05-01 13:45 | 15.46900 | -62.01506 | 39517 ft | 485 kts | 164° |
| 2026-05-01 13:46 | 15.40601 | -61.98964 | 39516 ft | 485 kts | 164° |
| 2026-05-01 13:46 | 15.34308 | -61.96425 | 39518 ft | 485 kts | 164° |
| 2026-05-01 13:47 | 15.28017 | -61.93889 | 39517 ft | 485 kts | 164° |
| 2026-05-01 13:47 | 15.21731 | -61.91357 | 39514 ft | 485 kts | 164° |
| 2026-05-01 13:48 | 15.15449 | -61.88829 | 39518 ft | 484 kts | 164° |
| 2026-05-01 13:48 | 15.09166 | -61.86301 | 39517 ft | 483 kts | 164° |
| 2026-05-01 13:49 | 15.02891 | -61.83777 | 39518 ft | 482 kts | 164° |
| 2026-05-01 13:49 | 14.96630 | -61.81261 | 39518 ft | 482 kts | 164° |
| 2026-05-01 13:50 | 14.90406 | -61.78763 | 39516 ft | 482 kts | 164° |
| 2026-05-01 13:50 | 14.84145 | -61.76250 | 39515 ft | 482 kts | 164° |
| 2026-05-01 13:51 | 14.77877 | -61.73737 | 39515 ft | 482 kts | 163° |
| 2026-05-01 13:51 | 14.71609 | -61.71225 | 39512 ft | 482 kts | 163° |
| 2026-05-01 13:52 | 14.65343 | -61.68716 | 39511 ft | 482 kts | 163° |
| 2026-05-01 13:52 | 14.59080 | -61.66208 | 39515 ft | 482 kts | 163° |
| 2026-05-01 13:53 | 14.52827 | -61.63707 | 39509 ft | 482 kts | 163° |
| 2026-05-01 13:53 | 14.43467 | -61.59966 | 39512 ft | 482 kts | 163° |
| 2026-05-01 13:54 | 14.37225 | -61.57472 | 39515 ft | 481 kts | 163° |
| 2026-05-01 13:54 | 14.30982 | -61.54980 | 39516 ft | 481 kts | 163° |
| 2026-05-01 13:55 | 14.24739 | -61.52489 | 39515 ft | 481 kts | 163° |
| 2026-05-01 13:55 | 14.18501 | -61.50002 | 39515 ft | 481 kts | 163° |
| 2026-05-01 13:56 | 14.12261 | -61.47516 | 39511 ft | 481 kts | 163° |
| 2026-05-01 13:56 | 14.06068 | -61.45049 | 39520 ft | 480 kts | 163° |
| 2026-05-01 13:57 | 13.99841 | -61.42570 | 39519 ft | 479 kts | 163° |
| 2026-05-01 13:57 | 13.93603 | -61.40089 | 39520 ft | 479 kts | 163° |
| 2026-05-01 13:58 | 13.87382 | -61.37616 | 39517 ft | 479 kts | 163° |
| 2026-05-01 13:58 | 13.81153 | -61.35141 | 39517 ft | 479 kts | 163° |
| 2026-05-01 13:59 | 13.74937 | -61.32673 | 39516 ft | 478 kts | 163° |
| 2026-05-01 13:59 | 13.68727 | -61.30208 | 39520 ft | 477 kts | 163° |
| 2026-05-01 14:00 | 13.62516 | -61.27750 | 39521 ft | 477 kts | 163° |
| 2026-05-01 14:00 | 13.56320 | -61.25294 | 39524 ft | 477 kts | 163° |
| 2026-05-01 14:01 | 13.50114 | -61.22833 | 39518 ft | 477 kts | 163° |
| 2026-05-01 14:01 | 13.43940 | -61.20388 | 39515 ft | 477 kts | 163° |
| 2026-05-01 14:02 | 13.37750 | -61.17938 | 39529 ft | 476 kts | 163° |
| 2026-05-01 14:02 | 13.31556 | -61.15488 | 39513 ft | 477 kts | 163° |
| 2026-05-01 14:03 | 13.25366 | -61.13043 | 39529 ft | 476 kts | 163° |
| 2026-05-01 14:03 | 13.19176 | -61.10597 | 39514 ft | 476 kts | 163° |
| 2026-05-01 14:04 | 13.12983 | -61.08153 | 39528 ft | 476 kts | 163° |
| 2026-05-01 14:04 | 13.07797 | -61.06106 | 39522 ft | 476 kts | 163° |
| 2026-05-01 14:05 | 13.00617 | -61.03275 | 39517 ft | 475 kts | 163° |
| 2026-05-01 14:05 | 12.94453 | -61.00845 | 39519 ft | 474 kts | 163° |
| 2026-05-01 14:06 | 12.88290 | -60.98416 | 39516 ft | 474 kts | 163° |
| 2026-05-01 14:06 | 12.82129 | -60.95991 | 39514 ft | 474 kts | 163° |
| 2026-05-01 14:07 | 12.75962 | -60.93564 | 39510 ft | 474 kts | 163° |
| 2026-05-01 14:08 | 12.66702 | -60.89922 | 39515 ft | 474 kts | 163° |
| 2026-05-01 14:08 | 12.60541 | -60.87501 | 39515 ft | 474 kts | 163° |
| 2026-05-01 14:09 | 12.54378 | -60.85080 | 39516 ft | 474 kts | 163° |
| 2026-05-01 14:09 | 12.48252 | -60.82675 | 39516 ft | 474 kts | 163° |
| 2026-05-01 14:10 | 12.42093 | -60.80260 | 39517 ft | 473 kts | 162° |
| 2026-05-01 14:10 | 12.35934 | -60.77843 | 39514 ft | 473 kts | 162° |
| 2026-05-01 14:11 | 12.29792 | -60.75435 | 39511 ft | 473 kts | 162° |
| 2026-05-01 14:11 | 12.20582 | -60.71827 | 39514 ft | 471 kts | 162° |
| 2026-05-01 14:12 | 12.14489 | -60.69442 | 39514 ft | 471 kts | 162° |
| 2026-05-01 14:12 | 12.08351 | -60.67040 | 39511 ft | 470 kts | 162° |
| 2026-05-01 14:13 | 12.03273 | -60.65054 | 39511 ft | 470 kts | 162° |
| 2026-05-01 14:13 | 11.96134 | -60.62264 | 39509 ft | 470 kts | 162° |
| 2026-05-01 14:14 | 11.90029 | -60.59878 | 39506 ft | 470 kts | 162° |
| 2026-05-01 14:14 | 11.83924 | -60.57494 | 39507 ft | 470 kts | 162° |
| 2026-05-01 14:15 | 11.77819 | -60.55112 | 39505 ft | 469 kts | 162° |
| 2026-05-01 14:15 | 11.71703 | -60.52726 | 39509 ft | 469 kts | 162° |
| 2026-05-01 14:16 | 11.65612 | -60.50350 | 39508 ft | 469 kts | 162° |
| 2026-05-01 14:16 | 11.59502 | -60.47968 | 39508 ft | 469 kts | 162° |
| 2026-05-01 14:17 | 11.53409 | -60.45595 | 39503 ft | 469 kts | 162° |
| 2026-05-01 14:17 | 11.47318 | -60.43222 | 39504 ft | 468 kts | 162° |
| 2026-05-01 14:18 | 11.41277 | -60.40872 | 39505 ft | 468 kts | 162° |
| 2026-05-01 14:18 | 11.36181 | -60.38889 | 39507 ft | 467 kts | 162° |
| 2026-05-01 14:19 | 11.29106 | -60.36137 | 39507 ft | 467 kts | 162° |
| 2026-05-01 14:19 | 11.23029 | -60.33775 | 39507 ft | 467 kts | 162° |
| 2026-05-01 14:20 | 11.14941 | -60.30633 | 39507 ft | 467 kts | 162° |
| 2026-05-01 14:21 | 11.08860 | -60.28272 | 39510 ft | 468 kts | 162° |
| 2026-05-01 14:21 | 11.02776 | -60.25911 | 39509 ft | 468 kts | 162° |
| 2026-05-01 14:22 | 10.93670 | -60.22378 | 39510 ft | 468 kts | 162° |
| 2026-05-01 14:22 | 10.87581 | -60.20017 | 39509 ft | 468 kts | 162° |
| 2026-05-01 14:23 | 10.81497 | -60.17660 | 39507 ft | 468 kts | 162° |
| 2026-05-01 14:23 | 10.75419 | -60.15305 | 39508 ft | 467 kts | 162° |
| 2026-05-01 14:24 | 10.69337 | -60.12950 | 39508 ft | 467 kts | 162° |
| 2026-05-01 14:24 | 10.63261 | -60.10599 | 39508 ft | 467 kts | 162° |
| 2026-05-01 14:25 | 10.57222 | -60.08263 | 39509 ft | 467 kts | 162° |
| 2026-05-01 14:25 | 10.51144 | -60.05913 | 39508 ft | 467 kts | 162° |
| 2026-05-01 14:26 | 10.42035 | -60.02392 | 39506 ft | 467 kts | 162° |
| 2026-05-01 14:27 | 10.35959 | -60.00045 | 39507 ft | 467 kts | 162° |
| 2026-05-01 14:27 | 10.29876 | -59.97696 | 39506 ft | 467 kts | 162° |
| 2026-05-01 14:28 | 10.20760 | -59.94178 | 39508 ft | 467 kts | 162° |
| 2026-05-01 14:28 | 10.14674 | -59.91830 | 39505 ft | 467 kts | 162° |
| 2026-05-01 14:29 | 10.08583 | -59.89482 | 39503 ft | 467 kts | 162° |
| 2026-05-01 14:30 | 9.96464 | -59.84812 | 39511 ft | 467 kts | 162° |
| 2026-05-01 14:31 | 9.87346 | -59.81301 | 39504 ft | 467 kts | 162° |
| 2026-05-01 14:31 | 9.81271 | -59.78963 | 39503 ft | 467 kts | 162° |
| 2026-05-01 14:32 | 9.75183 | -59.76621 | 39512 ft | 468 kts | 162° |
| 2026-05-01 14:32 | 9.69080 | -59.74274 | 39501 ft | 469 kts | 162° |
| 2026-05-01 14:33 | 9.62961 | -59.71922 | 39507 ft | 469 kts | 162° |
| 2026-05-01 14:33 | 9.56859 | -59.69576 | 39506 ft | 469 kts | 162° |
| 2026-05-01 14:34 | 9.50788 | -59.67244 | 39505 ft | 469 kts | 162° |
| 2026-05-01 14:34 | 9.44682 | -59.64900 | 39506 ft | 469 kts | 162° |
| 2026-05-01 14:35 | 9.38558 | -59.62549 | 39509 ft | 469 kts | 162° |
| 2026-05-01 14:35 | 9.32446 | -59.60204 | 39510 ft | 469 kts | 162° |
| 2026-05-01 14:36 | 9.26341 | -59.57862 | 39500 ft | 468 kts | 162° |
| 2026-05-01 14:36 | 9.20290 | -59.55542 | 39508 ft | 468 kts | 162° |
| 2026-05-01 14:37 | 9.14157 | -59.53192 | 39501 ft | 468 kts | 162° |
| 2026-05-01 14:37 | 9.08067 | -59.50858 | 39508 ft | 468 kts | 162° |
| 2026-05-01 14:38 | 9.01974 | -59.48525 | 39503 ft | 468 kts | 162° |
| 2026-05-01 14:38 | 8.95879 | -59.46192 | 39506 ft | 468 kts | 162° |
| 2026-05-01 14:39 | 8.89779 | -59.43835 | 39500 ft | 469 kts | 160° |
| 2026-05-01 14:39 | 8.83817 | -59.41126 | 39501 ft | 470 kts | 158° |
| 2026-05-01 14:40 | 8.77899 | -59.38290 | 39499 ft | 470 kts | 158° |
| 2026-05-01 14:40 | 8.71992 | -59.35511 | 39503 ft | 470 kts | 158° |
| 2026-05-01 14:41 | 8.66038 | -59.32759 | 39499 ft | 470 kts | 158° |
| 2026-05-01 14:41 | 8.60081 | -59.30023 | 39505 ft | 470 kts | 158° |
| 2026-05-01 14:42 | 8.54106 | -59.27279 | 39504 ft | 470 kts | 158° |
| 2026-05-01 14:42 | 8.48188 | -59.24560 | 39503 ft | 470 kts | 158° |
| 2026-05-01 14:43 | 8.42226 | -59.21821 | 39504 ft | 470 kts | 158° |
| 2026-05-01 14:43 | 8.36255 | -59.19078 | 39499 ft | 470 kts | 158° |
| 2026-05-01 14:44 | 8.30295 | -59.16341 | 39496 ft | 470 kts | 158° |
| 2026-05-01 14:44 | 8.21354 | -59.12237 | 39501 ft | 470 kts | 158° |
| 2026-05-01 14:45 | 8.12418 | -59.08137 | 39508 ft | 470 kts | 158° |
| 2026-05-01 14:46 | 8.06461 | -59.05406 | 39494 ft | 470 kts | 158° |
| 2026-05-01 14:46 | 7.97524 | -59.01309 | 39496 ft | 469 kts | 158° |
| 2026-05-01 14:47 | 7.91617 | -58.98602 | 39513 ft | 468 kts | 158° |
| 2026-05-01 14:48 | 7.82696 | -58.94516 | 39495 ft | 468 kts | 158° |
| 2026-05-01 14:48 | 7.73806 | -58.90446 | 39498 ft | 466 kts | 158° |
| 2026-05-01 14:49 | 7.62008 | -58.85048 | 39501 ft | 465 kts | 158° |
| 2026-05-01 14:50 | 7.50205 | -58.79650 | 39501 ft | 465 kts | 158° |
| 2026-05-01 14:51 | 7.41350 | -58.75603 | 39501 ft | 465 kts | 158° |
| 2026-05-01 14:52 | 7.32499 | -58.71560 | 39498 ft | 465 kts | 158° |
| 2026-05-01 14:53 | 7.23645 | -58.67516 | 39496 ft | 465 kts | 158° |
| 2026-05-01 14:53 | 7.17749 | -58.64825 | 39496 ft | 465 kts | 158° |
| 2026-05-01 14:54 | 7.11846 | -58.62131 | 39494 ft | 465 kts | 158° |
| 2026-05-01 14:54 | 7.05946 | -58.59439 | 39493 ft | 465 kts | 158° |
| 2026-05-01 14:55 | 7.00082 | -58.56765 | 39489 ft | 464 kts | 158° |
| 2026-05-01 14:55 | 6.95149 | -58.54515 | 39491 ft | 464 kts | 158° |
| 2026-05-01 14:56 | 6.89300 | -58.51849 | 39491 ft | 464 kts | 158° |
| 2026-05-01 14:56 | 6.83411 | -58.49166 | 39490 ft | 464 kts | 158° |
| 2026-05-01 14:57 | 6.77513 | -58.46478 | 39490 ft | 464 kts | 158° |
| 2026-05-01 14:57 | 6.68654 | -58.42444 | 39673 ft | 469 kts | 158° |
| 2026-05-01 14:58 | 6.62671 | -58.39721 | 39851 ft | 475 kts | 158° |
| 2026-05-01 14:58 | 6.56613 | -58.36964 | 40045 ft | 480 kts | 158° |
| 2026-05-01 14:59 | 6.53571 | -58.35579 | 40188 ft | 480 kts | 158° |
| 2026-05-01 14:59 | 6.50522 | -58.34191 | 40357 ft | 480 kts | 158° |
| 2026-05-01 14:59 | 6.47472 | -58.32803 | 40492 ft | 482 kts | 158° |
| 2026-05-01 14:59 | 6.44451 | -58.31429 | 40528 ft | 484 kts | 158° |
| 2026-05-01 15:00 | 6.35247 | -58.27243 | 40496 ft | 484 kts | 158° |
| 2026-05-01 15:01 | 6.29115 | -58.24454 | 40474 ft | 484 kts | 158° |
| 2026-05-01 15:01 | 6.22981 | -58.21667 | 40486 ft | 484 kts | 158° |
| 2026-05-01 15:02 | 6.16839 | -58.18876 | 40491 ft | 484 kts | 158° |
| 2026-05-01 15:02 | 6.10709 | -58.16090 | 40473 ft | 483 kts | 158° |
| 2026-05-01 15:03 | 6.04576 | -58.13305 | 40486 ft | 483 kts | 158° |
| 2026-05-01 15:03 | 5.98453 | -58.10525 | 40467 ft | 483 kts | 158° |
| 2026-05-01 15:04 | 5.92362 | -58.07760 | 40488 ft | 483 kts | 158° |
| 2026-05-01 15:04 | 5.86234 | -58.04979 | 40469 ft | 483 kts | 158° |
| 2026-05-01 15:05 | 5.80100 | -58.02196 | 40494 ft | 483 kts | 158° |
| 2026-05-01 15:05 | 5.73973 | -57.99417 | 40481 ft | 483 kts | 158° |
| 2026-05-01 15:06 | 5.67866 | -57.96647 | 40472 ft | 483 kts | 158° |
| 2026-05-01 15:06 | 5.61747 | -57.93872 | 40489 ft | 483 kts | 158° |
| 2026-05-01 15:07 | 5.55625 | -57.91097 | 40488 ft | 482 kts | 158° |
| 2026-05-01 15:07 | 5.49520 | -57.88330 | 40475 ft | 481 kts | 158° |
| 2026-05-01 15:08 | 5.43406 | -57.85561 | 40487 ft | 482 kts | 158° |
| 2026-05-01 15:08 | 5.37302 | -57.82796 | 40490 ft | 483 kts | 158° |
| 2026-05-01 15:09 | 5.31154 | -57.80011 | 40490 ft | 483 kts | 158° |
| 2026-05-01 15:09 | 5.25001 | -57.77225 | 40493 ft | 483 kts | 158° |
| 2026-05-01 15:10 | 5.18905 | -57.74465 | 40479 ft | 483 kts | 158° |
| 2026-05-01 15:10 | 5.09682 | -57.70291 | 40495 ft | 485 kts | 158° |
| 2026-05-01 15:11 | 5.00430 | -57.66105 | 40494 ft | 486 kts | 158° |
| 2026-05-01 15:12 | 4.94225 | -57.63389 | 40493 ft | 485 kts | 160° |
| 2026-05-01 15:12 | 4.84762 | -57.59830 | 40496 ft | 484 kts | 161° |
| 2026-05-01 15:14 | 4.69000 | -57.53835 | 40490 ft | 486 kts | 161° |
| 2026-05-01 15:14 | 4.59526 | -57.50180 | 40494 ft | 486 kts | 161° |
| 2026-05-01 15:15 | 4.46888 | -57.45312 | 40494 ft | 486 kts | 161° |
| 2026-05-01 15:16 | 4.34306 | -57.40469 | 40496 ft | 485 kts | 161° |
| 2026-05-01 15:18 | 4.18529 | -57.34399 | 40498 ft | 485 kts | 161° |
| 2026-05-01 15:19 | 4.05954 | -57.29564 | 40498 ft | 486 kts | 160° |
| 2026-05-01 15:19 | 3.96492 | -57.25925 | 40501 ft | 486 kts | 160° |
| 2026-05-01 15:20 | 3.86986 | -57.22271 | 40501 ft | 486 kts | 160° |
| 2026-05-01 15:21 | 3.80675 | -57.19846 | 40501 ft | 485 kts | 160° |
| 2026-05-01 15:21 | 3.74415 | -57.17440 | 40502 ft | 484 kts | 160° |
| 2026-05-01 15:22 | 3.64961 | -57.13808 | 40502 ft | 484 kts | 160° |
| 2026-05-01 15:22 | 3.58663 | -57.11389 | 40505 ft | 484 kts | 160° |
| 2026-05-01 15:23 | 3.52371 | -57.08973 | 40507 ft | 484 kts | 160° |
| 2026-05-01 15:23 | 3.46078 | -57.06556 | 40510 ft | 483 kts | 160° |
| 2026-05-01 15:24 | 3.39832 | -57.04158 | 40506 ft | 483 kts | 160° |
| 2026-05-01 15:24 | 3.33549 | -57.01746 | 40507 ft | 483 kts | 160° |
| 2026-05-01 15:25 | 3.27272 | -56.99336 | 40508 ft | 483 kts | 160° |
| 2026-05-01 15:25 | 3.20996 | -56.96928 | 40508 ft | 483 kts | 160° |
| 2026-05-01 15:26 | 3.14717 | -56.94519 | 40512 ft | 482 kts | 160° |
| 2026-05-01 15:26 | 3.08443 | -56.92111 | 40498 ft | 482 kts | 160° |
| 2026-05-01 15:27 | 3.02164 | -56.89702 | 40510 ft | 482 kts | 160° |
| 2026-05-01 15:28 | 2.92794 | -56.86108 | 40509 ft | 482 kts | 160° |
| 2026-05-01 15:28 | 2.86522 | -56.83703 | 40494 ft | 483 kts | 160° |
| 2026-05-01 15:29 | 2.77095 | -56.80088 | 40503 ft | 484 kts | 160° |
| 2026-05-01 15:30 | 2.65570 | -56.75669 | 40503 ft | 484 kts | 160° |
| 2026-05-01 15:31 | 2.46691 | -56.68433 | 40512 ft | 484 kts | 160° |
| 2026-05-01 15:32 | 2.34108 | -56.63611 | 40509 ft | 484 kts | 160° |
| 2026-05-01 15:34 | 2.15274 | -56.56396 | 40508 ft | 482 kts | 159° |